sensor_id;sensor_type;location;lat;lon;timestamp;pressure;altitude;pressure_sealevel;temperature;humidity
45763;BME280;37512;52.408;13.356;2023-04-26T00:00:30;100865.50;;;3.92;100.00
45763;BME280;37512;52.408;13.356;2023-04-26T00:04:31;100865.56;;;3.70;100.00
45763;BME280;37512;52.408;13.356;2023-04-26T00:08:35;100862.97;;;3.73;100.00
45763;BME280;37512;52.408;13.356;2023-04-26T00:12:36;100865.81;;;3.60;100.00
45763;BME280;37512;52.408;13.356;2023-04-26T00:16:38;100866.31;;;3.62;100.00
45763;BME280;37512;52.408;13.356;2023-04-26T00:20:39;100861.97;;;3.69;100.00
45763;BME280;37512;52.408;13.356;2023-04-26T00:24:41;100863.78;;;3.74;100.00
45763;BME280;37512;52.408;13.356;2023-04-26T00:28:43;100874.03;;;3.60;100.00
45763;BME280;37512;52.408;13.356;2023-04-26T00:32:45;100867.66;;;3.73;100.00
45763;BME280;37512;52.408;13.356;2023-04-26T00:36:47;100865.81;;;3.60;100.00
45763;BME280;37512;52.408;13.356;2023-04-26T00:40:48;100861.63;;;3.40;100.00
45763;BME280;37512;52.408;13.356;2023-04-26T00:44:50;100865.25;;;3.49;100.00
45763;BME280;37512;52.408;13.356;2023-04-26T00:48:56;100869.13;;;3.48;100.00
45763;BME280;37512;52.408;13.356;2023-04-26T00:52:57;100872.28;;;3.64;100.00
45763;BME280;37512;52.408;13.356;2023-04-26T00:56:59;100867.31;;;3.43;100.00
45763;BME280;37512;52.408;13.356;2023-04-26T01:01:01;100867.75;;;3.37;100.00
45763;BME280;37512;52.408;13.356;2023-04-26T01:05:03;100867.69;;;3.28;100.00
45763;BME280;37512;52.408;13.356;2023-04-26T01:09:06;100872.69;;;3.48;100.00
45763;BME280;37512;52.408;13.356;2023-04-26T01:13:10;100874.13;;;3.23;100.00
45763;BME280;37512;52.408;13.356;2023-04-26T01:17:11;100876.69;;;3.42;100.00
45763;BME280;37512;52.408;13.356;2023-04-26T01:21:24;100875.06;;;3.19;100.00
45763;BME280;37512;52.408;13.356;2023-04-26T01:25:25;100882.69;;;3.22;100.00
45763;BME280;37512;52.408;13.356;2023-04-26T01:29:27;100892.63;;;2.95;100.00
45763;BME280;37512;52.408;13.356;2023-04-26T01:33:29;100889.63;;;3.05;100.00
45763;BME280;37512;52.408;13.356;2023-04-26T01:37:30;100886.78;;;3.10;100.00
45763;BME280;37512;52.408;13.356;2023-04-26T01:41:32;100897.44;;;3.12;100.00
45763;BME280;37512;52.408;13.356;2023-04-26T01:45:33;100901.66;;;2.96;100.00
45763;BME280;37512;52.408;13.356;2023-04-26T01:49:35;100903.75;;;3.12;100.00
45763;BME280;37512;52.408;13.356;2023-04-26T01:53:37;100896.41;;;2.85;100.00
45763;BME280;37512;52.408;13.356;2023-04-26T01:57:38;100904.25;;;2.64;100.00
45763;BME280;37512;52.408;13.356;2023-04-26T02:01:43;100899.59;;;2.65;100.00
45763;BME280;37512;52.408;13.356;2023-04-26T02:05:45;100897.66;;;2.65;100.00
45763;BME280;37512;52.408;13.356;2023-04-26T02:09:46;100901.94;;;2.71;100.00
45763;BME280;37512;52.408;13.356;2023-04-26T02:13:48;100899.47;;;2.70;100.00
45763;BME280;37512;52.408;13.356;2023-04-26T02:17:49;100896.31;;;2.77;100.00
45763;BME280;37512;52.408;13.356;2023-04-26T02:21:56;100898.72;;;2.42;100.00
45763;BME280;37512;52.408;13.356;2023-04-26T02:25:58;100900.00;;;2.58;100.00
45763;BME280;37512;52.408;13.356;2023-04-26T02:29:59;100899.28;;;2.53;100.00
45763;BME280;37512;52.408;13.356;2023-04-26T02:34:01;100894.97;;;2.38;100.00
45763;BME280;37512;52.408;13.356;2023-04-26T02:38:02;100895.84;;;2.61;100.00
45763;BME280;37512;52.408;13.356;2023-04-26T02:42:08;100891.91;;;2.39;100.00
45763;BME280;37512;52.408;13.356;2023-04-26T02:46:10;100886.09;;;2.55;100.00
45763;BME280;37512;52.408;13.356;2023-04-26T02:50:12;100892.09;;;2.43;100.00
45763;BME280;37512;52.408;13.356;2023-04-26T02:54:13;100887.81;;;2.50;100.00
45763;BME280;37512;52.408;13.356;2023-04-26T02:58:15;100892.38;;;2.55;100.00
45763;BME280;37512;52.408;13.356;2023-04-26T03:02:17;100893.53;;;2.26;100.00
45763;BME280;37512;52.408;13.356;2023-04-26T03:06:19;100901.47;;;2.42;100.00
45763;BME280;37512;52.408;13.356;2023-04-26T03:10:21;100899.72;;;2.32;100.00
45763;BME280;37512;52.408;13.356;2023-04-26T03:14:22;100897.81;;;2.46;100.00
45763;BME280;37512;52.408;13.356;2023-04-26T03:18:24;100892.22;;;2.10;100.00
45763;BME280;37512;52.408;13.356;2023-04-26T03:22:25;100896.06;;;2.37;100.00
45763;BME280;37512;52.408;13.356;2023-04-26T03:26:27;100902.16;;;2.06;100.00
45763;BME280;37512;52.408;13.356;2023-04-26T03:30:29;100905.19;;;2.18;100.00
45763;BME280;37512;52.408;13.356;2023-04-26T03:34:30;100908.44;;;2.20;100.00
45763;BME280;37512;52.408;13.356;2023-04-26T03:38:32;100904.91;;;2.20;100.00
45763;BME280;37512;52.408;13.356;2023-04-26T03:42:33;100911.88;;;2.12;100.00
45763;BME280;37512;52.408;13.356;2023-04-26T03:46:35;100917.47;;;2.21;100.00
45763;BME280;37512;52.408;13.356;2023-04-26T03:50:36;100916.53;;;2.12;100.00
45763;BME280;37512;52.408;13.356;2023-04-26T03:54:39;100921.31;;;2.06;100.00
45763;BME280;37512;52.408;13.356;2023-04-26T03:58:41;100922.09;;;1.93;100.00
45763;BME280;37512;52.408;13.356;2023-04-26T04:02:43;100925.78;;;2.16;100.00
45763;BME280;37512;52.408;13.356;2023-04-26T04:06:45;100926.59;;;2.16;100.00
45763;BME280;37512;52.408;13.356;2023-04-26T04:10:47;100924.88;;;2.20;100.00
45763;BME280;37512;52.408;13.356;2023-04-26T04:14:48;100927.38;;;2.03;100.00
45763;BME280;37512;52.408;13.356;2023-04-26T04:18:50;100935.94;;;2.15;100.00
45763;BME280;37512;52.408;13.356;2023-04-26T04:22:52;100931.16;;;2.21;100.00
45763;BME280;37512;52.408;13.356;2023-04-26T04:26:53;100930.16;;;2.17;100.00
45763;BME280;37512;52.408;13.356;2023-04-26T04:30:56;100939.47;;;2.29;100.00
45763;BME280;37512;52.408;13.356;2023-04-26T04:34:58;100951.88;;;2.27;100.00
45763;BME280;37512;52.408;13.356;2023-04-26T04:38:59;100940.69;;;2.23;100.00
45763;BME280;37512;52.408;13.356;2023-04-26T04:43:01;100935.03;;;2.34;100.00
45763;BME280;37512;52.408;13.356;2023-04-26T04:47:03;100943.25;;;2.34;100.00
45763;BME280;37512;52.408;13.356;2023-04-26T04:51:05;100948.09;;;2.37;100.00
45763;BME280;37512;52.408;13.356;2023-04-26T04:55:06;100945.47;;;2.32;100.00
45763;BME280;37512;52.408;13.356;2023-04-26T04:59:08;100957.44;;;2.36;100.00
45763;BME280;37512;52.408;13.356;2023-04-26T05:03:10;100957.16;;;2.51;100.00
45763;BME280;37512;52.408;13.356;2023-04-26T05:07:12;100974.81;;;2.59;100.00
45763;BME280;37512;52.408;13.356;2023-04-26T05:11:15;100959.78;;;2.56;100.00
45763;BME280;37512;52.408;13.356;2023-04-26T05:15:17;100968.13;;;2.65;100.00
45763;BME280;37512;52.408;13.356;2023-04-26T05:19:19;100968.19;;;2.73;100.00
45763;BME280;37512;52.408;13.356;2023-04-26T05:23:20;100968.00;;;2.70;100.00
45763;BME280;37512;52.408;13.356;2023-04-26T05:27:22;100968.50;;;2.86;100.00
45763;BME280;37512;52.408;13.356;2023-04-26T05:31:23;100975.59;;;2.87;100.00
45763;BME280;37512;52.408;13.356;2023-04-26T05:35:25;100974.94;;;3.18;100.00
45763;BME280;37512;52.408;13.356;2023-04-26T05:39:26;100976.25;;;3.20;100.00
45763;BME280;37512;52.408;13.356;2023-04-26T05:43:28;100984.09;;;3.13;100.00
45763;BME280;37512;52.408;13.356;2023-04-26T05:47:29;100995.09;;;3.35;100.00
45763;BME280;37512;52.408;13.356;2023-04-26T05:51:31;100993.28;;;3.31;100.00
45763;BME280;37512;52.408;13.356;2023-04-26T05:55:32;100999.44;;;3.73;100.00
45763;BME280;37512;52.408;13.356;2023-04-26T05:59:37;100993.06;;;3.64;100.00
45763;BME280;37512;52.408;13.356;2023-04-26T06:03:38;101000.81;;;3.62;100.00
45763;BME280;37512;52.408;13.356;2023-04-26T06:07:40;101001.44;;;3.81;100.00
45763;BME280;37512;52.408;13.356;2023-04-26T06:11:41;101009.28;;;3.74;100.00
45763;BME280;37512;52.408;13.356;2023-04-26T06:15:43;101004.91;;;3.95;100.00
45763;BME280;37512;52.408;13.356;2023-04-26T06:19:45;101011.28;;;3.82;100.00
45763;BME280;37512;52.408;13.356;2023-04-26T06:23:46;101006.00;;;4.17;100.00
45763;BME280;37512;52.408;13.356;2023-04-26T06:27:48;101008.72;;;4.08;100.00
45763;BME280;37512;52.408;13.356;2023-04-26T06:31:49;101016.38;;;4.20;100.00
45763;BME280;37512;52.408;13.356;2023-04-26T06:35:51;101018.03;;;4.61;100.00
45763;BME280;37512;52.408;13.356;2023-04-26T06:39:52;101014.84;;;4.68;100.00
45763;BME280;37512;52.408;13.356;2023-04-26T06:43:54;101025.50;;;4.29;100.00
45763;BME280;37512;52.408;13.356;2023-04-26T06:47:56;101017.06;;;4.57;100.00
45763;BME280;37512;52.408;13.356;2023-04-26T06:51:58;101010.75;;;4.65;100.00
45763;BME280;37512;52.408;13.356;2023-04-26T06:55:59;101025.13;;;5.02;100.00
45763;BME280;37512;52.408;13.356;2023-04-26T07:00:02;101019.13;;;5.00;100.00
45763;BME280;37512;52.408;13.356;2023-04-26T07:04:05;101010.91;;;4.60;100.00
45763;BME280;37512;52.408;13.356;2023-04-26T07:08:17;101019.75;;;4.88;100.00
45763;BME280;37512;52.408;13.356;2023-04-26T07:12:19;101028.00;;;4.97;100.00
45763;BME280;37512;52.408;13.356;2023-04-26T07:16:21;101026.16;;;5.41;100.00
45763;BME280;37512;52.408;13.356;2023-04-26T07:20:23;101027.63;;;5.64;100.00
45763;BME280;37512;52.408;13.356;2023-04-26T07:24:24;101025.81;;;5.42;100.00
45763;BME280;37512;52.408;13.356;2023-04-26T07:28:26;101029.72;;;5.68;100.00
45763;BME280;37512;52.408;13.356;2023-04-26T07:32:28;101028.13;;;5.66;100.00
45763;BME280;37512;52.408;13.356;2023-04-26T07:36:29;101037.53;;;5.57;100.00
45763;BME280;37512;52.408;13.356;2023-04-26T07:40:32;101038.50;;;6.04;100.00
45763;BME280;37512;52.408;13.356;2023-04-26T07:44:33;101037.44;;;6.35;100.00
45763;BME280;37512;52.408;13.356;2023-04-26T07:48:35;101046.25;;;5.94;100.00
45763;BME280;37512;52.408;13.356;2023-04-26T07:52:37;101043.78;;;6.27;100.00
45763;BME280;37512;52.408;13.356;2023-04-26T07:56:39;101052.41;;;6.17;100.00
45763;BME280;37512;52.408;13.356;2023-04-26T08:00:41;101047.50;;;6.40;100.00
45763;BME280;37512;52.408;13.356;2023-04-26T08:04:49;101057.13;;;6.25;98.32
45763;BME280;37512;52.408;13.356;2023-04-26T08:08:53;101050.22;;;6.48;97.65
45763;BME280;37512;52.408;13.356;2023-04-26T08:12:54;101051.78;;;6.67;91.75
45763;BME280;37512;52.408;13.356;2023-04-26T08:16:57;101048.53;;;7.54;91.04
45763;BME280;37512;52.408;13.356;2023-04-26T08:20:59;101050.78;;;7.10;88.09
45763;BME280;37512;52.408;13.356;2023-04-26T08:25:01;101061.34;;;7.08;89.86
45763;BME280;37512;52.408;13.356;2023-04-26T08:29:02;101055.25;;;6.94;91.75
45763;BME280;37512;52.408;13.356;2023-04-26T08:33:04;101062.75;;;6.84;92.67
45763;BME280;37512;52.408;13.356;2023-04-26T08:37:09;101073.66;;;6.72;94.17
45763;BME280;37512;52.408;13.356;2023-04-26T08:41:12;101067.63;;;6.79;92.98
45763;BME280;37512;52.408;13.356;2023-04-26T08:45:18;101057.34;;;6.97;91.91
45763;BME280;37512;52.408;13.356;2023-04-26T08:49:43;101061.50;;;6.73;90.89
45763;BME280;37512;52.408;13.356;2023-04-26T08:53:46;101062.28;;;6.82;85.78
45763;BME280;37512;52.408;13.356;2023-04-26T08:57:49;101071.47;;;6.95;82.02
45763;BME280;37512;52.408;13.356;2023-04-26T09:01:51;101063.91;;;6.75;84.42
45763;BME280;37512;52.408;13.356;2023-04-26T09:05:53;101057.41;;;7.39;78.00
45763;BME280;37512;52.408;13.356;2023-04-26T09:09:57;101059.13;;;7.73;77.48
45763;BME280;37512;52.408;13.356;2023-04-26T09:13:58;101060.81;;;7.44;76.15
45763;BME280;37512;52.408;13.356;2023-04-26T09:22:34;101056.97;;;7.79;69.83
45763;BME280;37512;52.408;13.356;2023-04-26T09:26:37;101066.72;;;7.97;70.17
45763;BME280;37512;52.408;13.356;2023-04-26T09:30:39;101054.94;;;7.88;70.85
45763;BME280;37512;52.408;13.356;2023-04-26T09:34:44;101052.72;;;7.81;71.52
45763;BME280;37512;52.408;13.356;2023-04-26T09:38:49;101055.53;;;7.72;74.60
45763;BME280;37512;52.408;13.356;2023-04-26T09:43:01;101064.38;;;7.66;75.95
45763;BME280;37512;52.408;13.356;2023-04-26T09:47:05;101060.09;;;8.10;72.79
45763;BME280;37512;52.408;13.356;2023-04-26T09:51:09;101066.88;;;8.01;72.38
45763;BME280;37512;52.408;13.356;2023-04-26T09:55:24;101061.00;;;7.39;74.09
45763;BME280;37512;52.408;13.356;2023-04-26T09:59:54;101060.75;;;8.28;73.29
45763;BME280;37512;52.408;13.356;2023-04-26T10:03:58;101059.31;;;7.47;69.71
45763;BME280;37512;52.408;13.356;2023-04-26T10:08:01;101064.66;;;7.94;70.53
45763;BME280;37512;52.408;13.356;2023-04-26T10:12:04;101062.00;;;7.97;66.69
45763;BME280;37512;52.408;13.356;2023-04-26T10:16:07;101066.06;;;7.58;67.99
45763;BME280;37512;52.408;13.356;2023-04-26T10:20:12;101058.34;;;8.39;67.63
45763;BME280;37512;52.408;13.356;2023-04-26T10:24:14;101066.25;;;8.49;65.80
45763;BME280;37512;52.408;13.356;2023-04-26T10:45:33;101049.69;;;8.86;57.25
45763;BME280;37512;52.408;13.356;2023-04-26T10:49:45;101054.34;;;9.72;55.33
45763;BME280;37512;52.408;13.356;2023-04-26T10:57:52;101070.66;;;8.75;52.03
45763;BME280;37512;52.408;13.356;2023-04-26T11:01:59;101047.03;;;9.14;52.29
45763;BME280;37512;52.408;13.356;2023-04-26T11:06:05;101050.84;;;8.97;52.55
45763;BME280;37512;52.408;13.356;2023-04-26T11:10:09;101066.94;;;8.46;53.89
45763;BME280;37512;52.408;13.356;2023-04-26T11:14:22;101073.41;;;7.96;57.55
45763;BME280;37512;52.408;13.356;2023-04-26T11:18:25;101067.31;;;8.03;60.80
45763;BME280;37512;52.408;13.356;2023-04-26T11:22:26;101071.09;;;7.98;61.24
45763;BME280;37512;52.408;13.356;2023-04-26T11:26:33;101073.94;;;8.10;59.80
45763;BME280;37512;52.408;13.356;2023-04-26T11:30:35;101070.22;;;8.40;59.58
45763;BME280;37512;52.408;13.356;2023-04-26T11:34:37;101080.41;;;8.14;61.17
45763;BME280;37512;52.408;13.356;2023-04-26T11:38:39;101075.78;;;8.18;60.45
45763;BME280;37512;52.408;13.356;2023-04-26T11:42:43;101081.31;;;8.18;60.08
45763;BME280;37512;52.408;13.356;2023-04-26T11:46:48;101078.00;;;7.92;57.13
45763;BME280;37512;52.408;13.356;2023-04-26T11:50:50;101078.59;;;7.77;57.25
45763;BME280;37512;52.408;13.356;2023-04-26T11:55:00;101091.47;;;7.51;58.03
45763;BME280;37512;52.408;13.356;2023-04-26T11:59:04;101091.25;;;7.78;56.30
45763;BME280;37512;52.408;13.356;2023-04-26T12:03:06;101085.66;;;7.65;57.21
45763;BME280;37512;52.408;13.356;2023-04-26T12:07:11;101085.72;;;7.78;58.21
45763;BME280;37512;52.408;13.356;2023-04-26T12:11:17;101092.19;;;8.57;57.38
45763;BME280;37512;52.408;13.356;2023-04-26T12:15:24;101090.56;;;8.23;58.45
45763;BME280;37512;52.408;13.356;2023-04-26T12:19:26;101094.09;;;9.14;55.08
45763;BME280;37512;52.408;13.356;2023-04-26T12:23:36;101089.09;;;8.58;54.80
45763;BME280;37512;52.408;13.356;2023-04-26T12:27:39;101088.50;;;8.32;52.69
45763;BME280;37512;52.408;13.356;2023-04-26T12:31:42;101085.28;;;8.30;53.63
45763;BME280;37512;52.408;13.356;2023-04-26T12:35:45;101091.66;;;8.09;54.45
45763;BME280;37512;52.408;13.356;2023-04-26T12:39:47;101087.59;;;8.07;57.78
45763;BME280;37512;52.408;13.356;2023-04-26T12:43:48;101091.72;;;8.22;54.63
45763;BME280;37512;52.408;13.356;2023-04-26T12:47:50;101093.09;;;8.49;48.14
45763;BME280;37512;52.408;13.356;2023-04-26T12:51:52;101083.69;;;9.48;46.60
45763;BME280;37512;52.408;13.356;2023-04-26T12:55:53;101094.91;;;10.77;44.47
45763;BME280;37512;52.408;13.356;2023-04-26T12:59:55;101105.44;;;9.87;43.63
45763;BME280;37512;52.408;13.356;2023-04-26T13:03:57;101093.88;;;10.53;47.49
45763;BME280;37512;52.408;13.356;2023-04-26T13:08:01;101103.00;;;9.32;48.75
45763;BME280;37512;52.408;13.356;2023-04-26T13:12:02;101092.75;;;11.18;49.39
45763;BME280;37512;52.408;13.356;2023-04-26T13:16:04;101093.72;;;11.09;48.52
45763;BME280;37512;52.408;13.356;2023-04-26T13:20:06;101099.38;;;11.29;46.71
45763;BME280;37512;52.408;13.356;2023-04-26T13:24:08;101083.69;;;12.96;43.99
45763;BME280;37512;52.408;13.356;2023-04-26T13:28:10;101084.75;;;12.03;43.51
45763;BME280;37512;52.408;13.356;2023-04-26T13:32:12;101087.22;;;11.53;45.63
45763;BME280;37512;52.408;13.356;2023-04-26T13:36:14;101085.91;;;11.15;45.45
45763;BME280;37512;52.408;13.356;2023-04-26T13:40:16;101096.31;;;9.86;47.19
45763;BME280;37512;52.408;13.356;2023-04-26T13:44:19;101093.78;;;9.04;49.00
45763;BME280;37512;52.408;13.356;2023-04-26T13:48:20;101086.50;;;8.99;49.60
45763;BME280;37512;52.408;13.356;2023-04-26T13:52:22;101088.06;;;9.61;51.44
45763;BME280;37512;52.408;13.356;2023-04-26T13:56:24;101089.41;;;9.80;51.12
45763;BME280;37512;52.408;13.356;2023-04-26T14:00:26;101099.53;;;9.23;50.06
45763;BME280;37512;52.408;13.356;2023-04-26T14:04:28;101108.53;;;9.08;48.49
45763;BME280;37512;52.408;13.356;2023-04-26T14:08:30;101107.50;;;9.49;48.59
45763;BME280;37512;52.408;13.356;2023-04-26T14:12:32;101114.28;;;9.39;50.47
45763;BME280;37512;52.408;13.356;2023-04-26T14:16:34;101114.06;;;8.95;51.21
45763;BME280;37512;52.408;13.356;2023-04-26T14:20:36;101116.56;;;9.62;50.18
45763;BME280;37512;52.408;13.356;2023-04-26T14:24:37;101135.09;;;9.33;49.36
45763;BME280;37512;52.408;13.356;2023-04-26T14:28:39;101127.53;;;9.83;48.93
45763;BME280;37512;52.408;13.356;2023-04-26T14:32:41;101120.31;;;9.54;49.63
45763;BME280;37512;52.408;13.356;2023-04-26T14:36:43;101128.53;;;11.70;46.45
45763;BME280;37512;52.408;13.356;2023-04-26T14:40:45;101124.59;;;10.04;47.19
45763;BME280;37512;52.408;13.356;2023-04-26T14:44:47;101114.69;;;11.74;43.91
45763;BME280;37512;52.408;13.356;2023-04-26T14:48:48;101126.13;;;12.04;44.41
45763;BME280;37512;52.408;13.356;2023-04-26T14:52:50;101112.69;;;10.03;46.72
45763;BME280;37512;52.408;13.356;2023-04-26T14:56:51;101118.09;;;9.72;46.67
45763;BME280;37512;52.408;13.356;2023-04-26T15:00:54;101121.84;;;11.24;45.56
45763;BME280;37512;52.408;13.356;2023-04-26T15:04:55;101115.72;;;10.55;44.83
45763;BME280;37512;52.408;13.356;2023-04-26T15:08:57;101118.16;;;11.36;44.50
45763;BME280;37512;52.408;13.356;2023-04-26T15:12:58;101114.34;;;10.20;45.97
45763;BME280;37512;52.408;13.356;2023-04-26T15:17:00;101111.84;;;10.43;46.48
45763;BME280;37512;52.408;13.356;2023-04-26T15:21:02;101116.13;;;11.01;46.41
45763;BME280;37512;52.408;13.356;2023-04-26T15:25:04;101108.91;;;10.52;47.41
45763;BME280;37512;52.408;13.356;2023-04-26T15:29:06;101124.69;;;9.67;46.28
45763;BME280;37512;52.408;13.356;2023-04-26T15:33:08;101113.78;;;10.71;45.92
45763;BME280;37512;52.408;13.356;2023-04-26T15:37:10;101112.75;;;10.48;46.49
45763;BME280;37512;52.408;13.356;2023-04-26T15:41:12;101108.66;;;10.57;46.29
45763;BME280;37512;52.408;13.356;2023-04-26T15:45:13;101117.94;;;10.21;46.24
45763;BME280;37512;52.408;13.356;2023-04-26T15:49:15;101126.78;;;10.99;45.18
45763;BME280;37512;52.408;13.356;2023-04-26T15:53:17;101127.38;;;9.92;46.64
45763;BME280;37512;52.408;13.356;2023-04-26T15:57:18;101118.75;;;9.81;45.38
45763;BME280;37512;52.408;13.356;2023-04-26T16:01:20;101133.47;;;9.20;47.48
45763;BME280;37512;52.408;13.356;2023-04-26T16:05:22;101128.13;;;9.64;47.45
45763;BME280;37512;52.408;13.356;2023-04-26T16:09:23;101126.06;;;9.36;48.13
45763;BME280;37512;52.408;13.356;2023-04-26T16:13:26;101117.75;;;8.99;48.36
45763;BME280;37512;52.408;13.356;2023-04-26T16:17:28;101115.19;;;9.68;48.02
45763;BME280;37512;52.408;13.356;2023-04-26T16:21:29;101117.31;;;9.99;47.27
45763;BME280;37512;52.408;13.356;2023-04-26T16:25:31;101117.31;;;9.34;47.73
45763;BME280;37512;52.408;13.356;2023-04-26T16:29:32;101112.13;;;9.08;49.37
45763;BME280;37512;52.408;13.356;2023-04-26T16:33:34;101128.09;;;8.78;51.02
45763;BME280;37512;52.408;13.356;2023-04-26T16:37:36;101123.84;;;8.93;52.11
45763;BME280;37512;52.408;13.356;2023-04-26T16:41:40;101138.50;;;8.81;51.63
45763;BME280;37512;52.408;13.356;2023-04-26T16:45:42;101121.34;;;9.37;49.94
45763;BME280;37512;52.408;13.356;2023-04-26T16:49:43;101139.47;;;9.47;49.64
45763;BME280;37512;52.408;13.356;2023-04-26T16:53:45;101130.38;;;10.83;49.70
45763;BME280;37512;52.408;13.356;2023-04-26T16:57:46;101120.91;;;11.51;46.31
45763;BME280;37512;52.408;13.356;2023-04-26T17:01:48;101129.00;;;10.61;47.25
45763;BME280;37512;52.408;13.356;2023-04-26T17:05:50;101130.81;;;10.01;49.58
45763;BME280;37512;52.408;13.356;2023-04-26T17:09:52;101134.97;;;10.07;50.30
45763;BME280;37512;52.408;13.356;2023-04-26T17:13:55;101130.00;;;9.48;50.32
45763;BME280;37512;52.408;13.356;2023-04-26T17:17:57;101135.56;;;10.00;50.71
45763;BME280;37512;52.408;13.356;2023-04-26T17:21:59;101142.13;;;9.43;51.03
45763;BME280;37512;52.408;13.356;2023-04-26T17:26:01;101150.84;;;9.82;50.45
45763;BME280;37512;52.408;13.356;2023-04-26T17:30:02;101146.09;;;9.82;49.25
45763;BME280;37512;52.408;13.356;2023-04-26T17:34:04;101146.63;;;9.35;48.53
45763;BME280;37512;52.408;13.356;2023-04-26T17:38:06;101141.78;;;9.08;50.48
45763;BME280;37512;52.408;13.356;2023-04-26T17:42:07;101147.31;;;9.08;50.73
45763;BME280;37512;52.408;13.356;2023-04-26T17:46:09;101146.50;;;8.62;51.77
45763;BME280;37512;52.408;13.356;2023-04-26T17:50:11;101150.53;;;8.64;53.16
45763;BME280;37512;52.408;13.356;2023-04-26T17:54:13;101151.31;;;8.31;54.11
45763;BME280;37512;52.408;13.356;2023-04-26T17:58:15;101161.25;;;8.11;55.79
45763;BME280;37512;52.408;13.356;2023-04-26T18:02:17;101165.69;;;8.25;56.35
45763;BME280;37512;52.408;13.356;2023-04-26T18:06:19;101174.31;;;7.81;57.52
45763;BME280;37512;52.408;13.356;2023-04-26T18:10:21;101175.47;;;8.01;58.75
45763;BME280;37512;52.408;13.356;2023-04-26T18:14:22;101172.44;;;7.94;59.15
45763;BME280;37512;52.408;13.356;2023-04-26T18:18:25;101179.03;;;7.81;61.29
45763;BME280;37512;52.408;13.356;2023-04-26T18:22:28;101181.59;;;7.86;62.85
45763;BME280;37512;52.408;13.356;2023-04-26T18:26:29;101179.84;;;7.81;63.06
45763;BME280;37512;52.408;13.356;2023-04-26T18:30:31;101191.03;;;7.55;66.12
45763;BME280;37512;52.408;13.356;2023-04-26T18:34:33;101199.25;;;7.34;69.38
45763;BME280;37512;52.408;13.356;2023-04-26T18:38:34;101195.31;;;7.44;69.01
45763;BME280;37512;52.408;13.356;2023-04-26T18:42:36;101204.56;;;7.09;71.92
45763;BME280;37512;52.408;13.356;2023-04-26T18:46:39;101199.22;;;7.43;71.92
45763;BME280;37512;52.408;13.356;2023-04-26T18:50:48;101195.63;;;7.51;73.19
45763;BME280;37512;52.408;13.356;2023-04-26T18:54:51;101198.19;;;7.56;71.90
45763;BME280;37512;52.408;13.356;2023-04-26T18:58:52;101210.41;;;7.08;75.98
45763;BME280;37512;52.408;13.356;2023-04-26T19:02:54;101206.44;;;7.26;75.28
45763;BME280;37512;52.408;13.356;2023-04-26T19:06:56;101211.22;;;7.47;76.06
45763;BME280;37512;52.408;13.356;2023-04-26T19:10:57;101214.81;;;7.39;77.92
45763;BME280;37512;52.408;13.356;2023-04-26T19:14:59;101222.25;;;7.00;80.65
45763;BME280;37512;52.408;13.356;2023-04-26T19:19:01;101216.22;;;7.15;81.25
45763;BME280;37512;52.408;13.356;2023-04-26T19:23:03;101217.47;;;7.26;78.44
45763;BME280;37512;52.408;13.356;2023-04-26T19:27:04;101221.72;;;7.15;80.26
45763;BME280;37512;52.408;13.356;2023-04-26T19:31:06;101217.66;;;7.21;80.91
45763;BME280;37512;52.408;13.356;2023-04-26T19:35:08;101225.84;;;6.91;85.11
45763;BME280;37512;52.408;13.356;2023-04-26T19:39:10;101217.88;;;6.99;84.94
45763;BME280;37512;52.408;13.356;2023-04-26T19:43:11;101224.09;;;6.78;86.16
45763;BME280;37512;52.408;13.356;2023-04-26T19:47:13;101228.50;;;6.36;90.61
45763;BME280;37512;52.408;13.356;2023-04-26T19:51:15;101223.13;;;6.65;89.78
45763;BME280;37512;52.408;13.356;2023-04-26T19:55:17;101220.88;;;6.50;92.49
45763;BME280;37512;52.408;13.356;2023-04-26T19:59:19;101239.34;;;6.49;92.21
45763;BME280;37512;52.408;13.356;2023-04-26T20:03:21;101239.19;;;6.63;91.98
45763;BME280;37512;52.408;13.356;2023-04-26T20:07:23;101236.75;;;6.79;93.08
45763;BME280;37512;52.408;13.356;2023-04-26T20:11:25;101243.69;;;7.03;91.34
45763;BME280;37512;52.408;13.356;2023-04-26T20:15:27;101239.00;;;6.86;94.12
45763;BME280;37512;52.408;13.356;2023-04-26T20:19:29;101238.03;;;6.82;97.00
45763;BME280;37512;52.408;13.356;2023-04-26T20:23:31;101238.38;;;6.89;100.00
45763;BME280;37512;52.408;13.356;2023-04-26T20:27:33;101248.91;;;6.96;98.52
45763;BME280;37512;52.408;13.356;2023-04-26T20:31:34;101242.75;;;6.81;100.00
45763;BME280;37512;52.408;13.356;2023-04-26T20:35:36;101248.94;;;6.78;94.79
45763;BME280;37512;52.408;13.356;2023-04-26T20:39:37;101251.84;;;6.38;100.00
45763;BME280;37512;52.408;13.356;2023-04-26T20:43:39;101246.47;;;6.68;98.48
45763;BME280;37512;52.408;13.356;2023-04-26T20:47:40;101242.13;;;6.76;100.00
45763;BME280;37512;52.408;13.356;2023-04-26T20:51:42;101248.13;;;6.69;100.00
45763;BME280;37512;52.408;13.356;2023-04-26T20:55:44;101245.84;;;6.80;100.00
45763;BME280;37512;52.408;13.356;2023-04-26T20:59:45;101250.53;;;6.79;100.00
45763;BME280;37512;52.408;13.356;2023-04-26T21:03:47;101248.44;;;6.67;100.00
45763;BME280;37512;52.408;13.356;2023-04-26T21:07:49;101258.53;;;6.55;100.00
45763;BME280;37512;52.408;13.356;2023-04-26T21:11:50;101257.38;;;6.73;100.00
45763;BME280;37512;52.408;13.356;2023-04-26T21:15:52;101245.19;;;6.74;100.00
45763;BME280;37512;52.408;13.356;2023-04-26T21:19:53;101252.34;;;6.49;100.00
45763;BME280;37512;52.408;13.356;2023-04-26T21:23:55;101253.31;;;6.44;100.00